sensor_id;sensor_type;location;lat;lon;timestamp;pressure;altitude;pressure_sealevel;temperature
64175;BMP280;50469;50.438;-119.202;2022-10-16T00:01:46;97718.69;;;21.66
64175;BMP280;50469;50.438;-119.202;2022-10-16T00:04:14;97708.84;;;21.45
64175;BMP280;50469;50.438;-119.202;2022-10-16T00:06:45;97709.69;;;20.94
64175;BMP280;50469;50.438;-119.202;2022-10-16T00:09:13;97707.81;;;20.67
64175;BMP280;50469;50.438;-119.202;2022-10-16T00:11:44;97710.59;;;20.49
64175;BMP280;50469;50.438;-119.202;2022-10-16T00:14:15;97718.47;;;20.10
64175;BMP280;50469;50.438;-119.202;2022-10-16T00:16:45;97720.44;;;20.18
64175;BMP280;50469;50.438;-119.202;2022-10-16T00:19:14;97709.09;;;19.92
64175;BMP280;50469;50.438;-119.202;2022-10-16T00:21:42;97709.25;;;19.70
64175;BMP280;50469;50.438;-119.202;2022-10-16T00:24:10;97704.06;;;19.54
64175;BMP280;50469;50.438;-119.202;2022-10-16T00:26:39;97700.28;;;19.42
64175;BMP280;50469;50.438;-119.202;2022-10-16T00:29:08;97704.47;;;19.25
64175;BMP280;50469;50.438;-119.202;2022-10-16T00:31:36;97708.84;;;19.00
64175;BMP280;50469;50.438;-119.202;2022-10-16T00:34:06;97692.97;;;18.90
64175;BMP280;50469;50.438;-119.202;2022-10-16T00:36:37;97706.44;;;18.71
64175;BMP280;50469;50.438;-119.202;2022-10-16T00:39:06;97702.72;;;18.47
64175;BMP280;50469;50.438;-119.202;2022-10-16T00:41:36;97707.13;;;18.19
64175;BMP280;50469;50.438;-119.202;2022-10-16T00:47:22;97697.72;;;17.89
64175;BMP280;50469;50.438;-119.202;2022-10-16T00:52:44;97701.88;;;17.55
64175;BMP280;50469;50.438;-119.202;2022-10-16T00:55:14;97704.81;;;17.48
64175;BMP280;50469;50.438;-119.202;2022-10-16T00:57:43;97702.56;;;17.33
64175;BMP280;50469;50.438;-119.202;2022-10-16T01:00:15;97694.75;;;17.10
64175;BMP280;50469;50.438;-119.202;2022-10-16T01:02:52;97690.69;;;16.76
64175;BMP280;50469;50.438;-119.202;2022-10-16T01:05:28;97702.09;;;16.55
64175;BMP280;50469;50.438;-119.202;2022-10-16T01:08:16;97702.72;;;16.46
64175;BMP280;50469;50.438;-119.202;2022-10-16T01:11:07;97700.25;;;16.23
64175;BMP280;50469;50.438;-119.202;2022-10-16T01:13:45;97703.34;;;16.08
64175;BMP280;50469;50.438;-119.202;2022-10-16T01:16:35;97701.13;;;15.87
64175;BMP280;50469;50.438;-119.202;2022-10-16T01:19:13;97703.66;;;15.94
64175;BMP280;50469;50.438;-119.202;2022-10-16T01:21:44;97704.00;;;15.96
64175;BMP280;50469;50.438;-119.202;2022-10-16T01:24:31;97706.72;;;15.63
64175;BMP280;50469;50.438;-119.202;2022-10-16T01:29:45;97716.97;;;15.16
64175;BMP280;50469;50.438;-119.202;2022-10-16T01:32:23;97719.84;;;13.75
64175;BMP280;50469;50.438;-119.202;2022-10-16T01:35:02;97719.47;;;12.80
64175;BMP280;50469;50.438;-119.202;2022-10-16T01:37:59;97731.25;;;12.94
64175;BMP280;50469;50.438;-119.202;2022-10-16T01:40:31;97733.44;;;13.37
64175;BMP280;50469;50.438;-119.202;2022-10-16T01:43:16;97732.44;;;13.81
64175;BMP280;50469;50.438;-119.202;2022-10-16T01:45:46;97727.03;;;13.81
64175;BMP280;50469;50.438;-119.202;2022-10-16T01:48:17;97732.44;;;13.27
64175;BMP280;50469;50.438;-119.202;2022-10-16T01:51:09;97739.38;;;13.21
64175;BMP280;50469;50.438;-119.202;2022-10-16T01:53:44;97735.69;;;13.08
64175;BMP280;50469;50.438;-119.202;2022-10-16T01:56:15;97743.56;;;13.25
64175;BMP280;50469;50.438;-119.202;2022-10-16T01:58:57;97741.16;;;13.62
64175;BMP280;50469;50.438;-119.202;2022-10-16T02:01:30;97734.81;;;13.48
64175;BMP280;50469;50.438;-119.202;2022-10-16T02:04:03;97749.19;;;13.04
64175;BMP280;50469;50.438;-119.202;2022-10-16T02:06:34;97751.63;;;11.20
64175;BMP280;50469;50.438;-119.202;2022-10-16T02:09:05;97755.03;;;11.28
64175;BMP280;50469;50.438;-119.202;2022-10-16T02:11:33;97760.34;;;11.46
64175;BMP280;50469;50.438;-119.202;2022-10-16T02:14:06;97754.91;;;11.60
64175;BMP280;50469;50.438;-119.202;2022-10-16T02:16:45;97756.81;;;11.67
64175;BMP280;50469;50.438;-119.202;2022-10-16T02:19:14;97761.38;;;11.70
64175;BMP280;50469;50.438;-119.202;2022-10-16T02:21:58;97766.00;;;11.69
64175;BMP280;50469;50.438;-119.202;2022-10-16T02:29:32;97773.66;;;11.71
64175;BMP280;50469;50.438;-119.202;2022-10-16T02:32:03;97777.06;;;11.75
64175;BMP280;50469;50.438;-119.202;2022-10-16T02:34:33;97775.94;;;11.73
64175;BMP280;50469;50.438;-119.202;2022-10-16T02:37:03;97777.44;;;11.77
64175;BMP280;50469;50.438;-119.202;2022-10-16T02:39:33;97772.06;;;11.74
64175;BMP280;50469;50.438;-119.202;2022-10-16T02:42:01;97772.91;;;11.67
64175;BMP280;50469;50.438;-119.202;2022-10-16T02:44:29;97773.28;;;11.58
64175;BMP280;50469;50.438;-119.202;2022-10-16T02:46:57;97774.03;;;11.66
64175;BMP280;50469;50.438;-119.202;2022-10-16T02:49:25;97776.13;;;11.19
64175;BMP280;50469;50.438;-119.202;2022-10-16T02:51:53;97772.75;;;10.93
64175;BMP280;50469;50.438;-119.202;2022-10-16T02:54:21;97773.88;;;10.92
64175;BMP280;50469;50.438;-119.202;2022-10-16T02:56:52;97777.34;;;10.78
64175;BMP280;50469;50.438;-119.202;2022-10-16T02:59:20;97772.75;;;10.79
64175;BMP280;50469;50.438;-119.202;2022-10-16T03:01:48;97768.56;;;10.64
64175;BMP280;50469;50.438;-119.202;2022-10-16T03:04:16;97779.63;;;10.55
64175;BMP280;50469;50.438;-119.202;2022-10-16T03:06:47;97780.41;;;10.95
64175;BMP280;50469;50.438;-119.202;2022-10-16T03:09:15;97790.34;;;11.01
64175;BMP280;50469;50.438;-119.202;2022-10-16T03:11:43;97785.38;;;10.71
64175;BMP280;50469;50.438;-119.202;2022-10-16T03:14:14;97787.69;;;10.58
64175;BMP280;50469;50.438;-119.202;2022-10-16T03:16:42;97778.50;;;10.42
64175;BMP280;50469;50.438;-119.202;2022-10-16T03:19:10;97784.63;;;10.49
64175;BMP280;50469;50.438;-119.202;2022-10-16T03:21:38;97790.00;;;10.49
64175;BMP280;50469;50.438;-119.202;2022-10-16T03:24:06;97786.88;;;10.22
64175;BMP280;50469;50.438;-119.202;2022-10-16T03:26:34;97791.47;;;10.25
64175;BMP280;50469;50.438;-119.202;2022-10-16T03:29:03;97788.41;;;10.23
64175;BMP280;50469;50.438;-119.202;2022-10-16T03:31:34;97795.69;;;10.19
64175;BMP280;50469;50.438;-119.202;2022-10-16T03:34:02;97788.78;;;10.11
64175;BMP280;50469;50.438;-119.202;2022-10-16T03:36:30;97799.47;;;9.20
64175;BMP280;50469;50.438;-119.202;2022-10-16T03:38:58;97810.56;;;8.74
64175;BMP280;50469;50.438;-119.202;2022-10-16T03:41:26;97810.16;;;8.72
64175;BMP280;50469;50.438;-119.202;2022-10-16T03:43:54;97809.13;;;8.83
64175;BMP280;50469;50.438;-119.202;2022-10-16T03:46:25;97807.72;;;8.97
64175;BMP280;50469;50.438;-119.202;2022-10-16T03:48:53;97802.44;;;9.07
64175;BMP280;50469;50.438;-119.202;2022-10-16T03:51:21;97809.34;;;9.16
64175;BMP280;50469;50.438;-119.202;2022-10-16T03:53:49;97805.19;;;9.18
64175;BMP280;50469;50.438;-119.202;2022-10-16T03:56:20;97807.03;;;9.14
64175;BMP280;50469;50.438;-119.202;2022-10-16T03:58:48;97815.56;;;9.30
64175;BMP280;50469;50.438;-119.202;2022-10-16T04:01:16;97817.50;;;9.37
64175;BMP280;50469;50.438;-119.202;2022-10-16T04:03:44;97812.16;;;9.37
64175;BMP280;50469;50.438;-119.202;2022-10-16T04:06:15;97813.66;;;9.31
64175;BMP280;50469;50.438;-119.202;2022-10-16T04:08:46;97819.34;;;9.29
64175;BMP280;50469;50.438;-119.202;2022-10-16T04:11:14;97816.91;;;9.03
64175;BMP280;50469;50.438;-119.202;2022-10-16T04:13:45;97818.34;;;8.93
64175;BMP280;50469;50.438;-119.202;2022-10-16T04:16:13;97829.16;;;8.63
64175;BMP280;50469;50.438;-119.202;2022-10-16T04:18:41;97833.16;;;8.42
64175;BMP280;50469;50.438;-119.202;2022-10-16T04:21:09;97836.28;;;8.52
64175;BMP280;50469;50.438;-119.202;2022-10-16T04:23:37;97837.50;;;8.20
64175;BMP280;50469;50.438;-119.202;2022-10-16T04:26:05;97836.34;;;8.21
64175;BMP280;50469;50.438;-119.202;2022-10-16T04:28:36;97831.44;;;8.23
64175;BMP280;50469;50.438;-119.202;2022-10-16T04:31:05;97836.06;;;8.30
64175;BMP280;50469;50.438;-119.202;2022-10-16T04:33:33;97836.16;;;8.37
64175;BMP280;50469;50.438;-119.202;2022-10-16T04:36:02;97838.09;;;8.40
64175;BMP280;50469;50.438;-119.202;2022-10-16T04:38:31;97840.41;;;8.42
64175;BMP280;50469;50.438;-119.202;2022-10-16T04:40:59;97834.38;;;8.49
64175;BMP280;50469;50.438;-119.202;2022-10-16T04:43:30;97838.38;;;8.32
64175;BMP280;50469;50.438;-119.202;2022-10-16T04:45:58;97839.25;;;8.09
64175;BMP280;50469;50.438;-119.202;2022-10-16T04:48:26;97836.47;;;7.98
64175;BMP280;50469;50.438;-119.202;2022-10-16T04:50:54;97845.59;;;7.97
64175;BMP280;50469;50.438;-119.202;2022-10-16T04:53:22;97843.56;;;7.57
64175;BMP280;50469;50.438;-119.202;2022-10-16T04:55:50;97845.78;;;7.25
64175;BMP280;50469;50.438;-119.202;2022-10-16T04:58:18;97846.78;;;7.43
64175;BMP280;50469;50.438;-119.202;2022-10-16T05:00:46;97851.84;;;7.52
64175;BMP280;50469;50.438;-119.202;2022-10-16T05:03:14;97845.59;;;7.67
64175;BMP280;50469;50.438;-119.202;2022-10-16T05:05:46;97848.72;;;7.20
64175;BMP280;50469;50.438;-119.202;2022-10-16T05:08:15;97840.69;;;7.43
64175;BMP280;50469;50.438;-119.202;2022-10-16T05:10:47;97844.25;;;7.54
64175;BMP280;50469;50.438;-119.202;2022-10-16T05:13:15;97844.13;;;7.70
64175;BMP280;50469;50.438;-119.202;2022-10-16T05:15:47;97842.22;;;7.70
64175;BMP280;50469;50.438;-119.202;2022-10-16T05:18:16;97846.41;;;7.71
64175;BMP280;50469;50.438;-119.202;2022-10-16T05:20:44;97847.34;;;7.56
64175;BMP280;50469;50.438;-119.202;2022-10-16T05:23:12;97849.56;;;7.50
64175;BMP280;50469;50.438;-119.202;2022-10-16T05:25:40;97851.47;;;7.53
64175;BMP280;50469;50.438;-119.202;2022-10-16T05:28:08;97852.28;;;7.27
64175;BMP280;50469;50.438;-119.202;2022-10-16T05:30:37;97855.56;;;7.21
64175;BMP280;50469;50.438;-119.202;2022-10-16T05:33:05;97849.41;;;7.16
64175;BMP280;50469;50.438;-119.202;2022-10-16T05:35:36;97848.53;;;7.09
64175;BMP280;50469;50.438;-119.202;2022-10-16T05:38:04;97846.66;;;6.86
64175;BMP280;50469;50.438;-119.202;2022-10-16T05:40:32;97851.16;;;6.82
64175;BMP280;50469;50.438;-119.202;2022-10-16T05:43:00;97860.66;;;6.83
64175;BMP280;50469;50.438;-119.202;2022-10-16T05:45:30;97859.88;;;6.83
64175;BMP280;50469;50.438;-119.202;2022-10-16T05:48:02;97868.13;;;6.78
64175;BMP280;50469;50.438;-119.202;2022-10-16T05:50:33;97863.91;;;6.73
64175;BMP280;50469;50.438;-119.202;2022-10-16T05:53:01;97866.66;;;6.77
64175;BMP280;50469;50.438;-119.202;2022-10-16T05:55:29;97873.97;;;6.83
64175;BMP280;50469;50.438;-119.202;2022-10-16T05:57:57;97872.19;;;6.68
64175;BMP280;50469;50.438;-119.202;2022-10-16T06:00:27;97873.06;;;6.76
64175;BMP280;50469;50.438;-119.202;2022-10-16T06:02:55;97883.34;;;6.77
64175;BMP280;50469;50.438;-119.202;2022-10-16T06:05:23;97877.94;;;6.70
64175;BMP280;50469;50.438;-119.202;2022-10-16T06:07:52;97876.78;;;6.71
64175;BMP280;50469;50.438;-119.202;2022-10-16T06:10:20;97886.00;;;6.77
64175;BMP280;50469;50.438;-119.202;2022-10-16T06:12:48;97873.47;;;6.78
64175;BMP280;50469;50.438;-119.202;2022-10-16T06:15:16;97887.31;;;6.64
64175;BMP280;50469;50.438;-119.202;2022-10-16T06:17:46;97886.03;;;6.58
64175;BMP280;50469;50.438;-119.202;2022-10-16T06:20:15;97875.47;;;6.42
64175;BMP280;50469;50.438;-119.202;2022-10-16T06:22:43;97886.59;;;6.28
64175;BMP280;50469;50.438;-119.202;2022-10-16T06:25:11;97876.69;;;6.25
64175;BMP280;50469;50.438;-119.202;2022-10-16T06:27:42;97886.66;;;6.12
64175;BMP280;50469;50.438;-119.202;2022-10-16T06:30:10;97889.81;;;6.18
64175;BMP280;50469;50.438;-119.202;2022-10-16T06:32:38;97882.63;;;6.18
64175;BMP280;50469;50.438;-119.202;2022-10-16T06:35:06;97887.44;;;6.13
64175;BMP280;50469;50.438;-119.202;2022-10-16T06:37:34;97884.00;;;6.12
64175;BMP280;50469;50.438;-119.202;2022-10-16T06:40:03;97885.09;;;6.11
64175;BMP280;50469;50.438;-119.202;2022-10-16T06:42:31;97888.59;;;5.96
64175;BMP280;50469;50.438;-119.202;2022-10-16T06:44:59;97884.13;;;6.00
64175;BMP280;50469;50.438;-119.202;2022-10-16T06:47:27;97889.06;;;5.82
64175;BMP280;50469;50.438;-119.202;2022-10-16T06:49:55;97886.41;;;5.66
64175;BMP280;50469;50.438;-119.202;2022-10-16T06:52:23;97884.78;;;5.77
64175;BMP280;50469;50.438;-119.202;2022-10-16T06:54:55;97891.03;;;5.85
64175;BMP280;50469;50.438;-119.202;2022-10-16T06:57:23;97890.25;;;5.84
64175;BMP280;50469;50.438;-119.202;2022-10-16T06:59:53;97888.22;;;5.97
64175;BMP280;50469;50.438;-119.202;2022-10-16T07:02:21;97894.72;;;5.80
64175;BMP280;50469;50.438;-119.202;2022-10-16T07:04:53;97908.00;;;5.80
64175;BMP280;50469;50.438;-119.202;2022-10-16T07:07:21;97899.88;;;5.57
64175;BMP280;50469;50.438;-119.202;2022-10-16T07:09:52;97901.00;;;5.56
64175;BMP280;50469;50.438;-119.202;2022-10-16T07:12:25;97906.22;;;5.53
64175;BMP280;50469;50.438;-119.202;2022-10-16T07:14:53;97890.13;;;5.45
64175;BMP280;50469;50.438;-119.202;2022-10-16T07:17:21;97910.41;;;5.54
64175;BMP280;50469;50.438;-119.202;2022-10-16T07:19:49;97911.03;;;5.63
64175;BMP280;50469;50.438;-119.202;2022-10-16T07:22:17;97911.88;;;5.67
64175;BMP280;50469;50.438;-119.202;2022-10-16T07:24:45;97917.13;;;5.47
64175;BMP280;50469;50.438;-119.202;2022-10-16T07:27:18;97912.94;;;5.62
64175;BMP280;50469;50.438;-119.202;2022-10-16T07:29:46;97921.25;;;5.61
64175;BMP280;50469;50.438;-119.202;2022-10-16T07:32:14;97920.44;;;5.44
64175;BMP280;50469;50.438;-119.202;2022-10-16T07:34:42;97921.44;;;5.08
64175;BMP280;50469;50.438;-119.202;2022-10-16T07:37:10;97924.72;;;5.17
64175;BMP280;50469;50.438;-119.202;2022-10-16T07:39:41;97924.22;;;5.12
64175;BMP280;50469;50.438;-119.202;2022-10-16T07:42:11;97923.78;;;5.10
64175;BMP280;50469;50.438;-119.202;2022-10-16T07:44:39;97925.31;;;5.11
64175;BMP280;50469;50.438;-119.202;2022-10-16T07:47:07;97934.81;;;5.12
64175;BMP280;50469;50.438;-119.202;2022-10-16T07:49:36;97938.13;;;5.09
64175;BMP280;50469;50.438;-119.202;2022-10-16T07:52:04;97935.75;;;5.19
64175;BMP280;50469;50.438;-119.202;2022-10-16T07:54:32;97925.88;;;5.04
64175;BMP280;50469;50.438;-119.202;2022-10-16T07:57:00;97929.63;;;5.03
64175;BMP280;50469;50.438;-119.202;2022-10-16T07:59:28;97929.19;;;5.01
64175;BMP280;50469;50.438;-119.202;2022-10-16T08:01:56;97929.94;;;4.85
64175;BMP280;50469;50.438;-119.202;2022-10-16T08:04:24;97922.78;;;4.45
64175;BMP280;50469;50.438;-119.202;2022-10-16T08:06:52;97928.13;;;4.61
64175;BMP280;50469;50.438;-119.202;2022-10-16T08:09:20;97925.13;;;5.03
64175;BMP280;50469;50.438;-119.202;2022-10-16T08:11:48;97924.56;;;5.26
64175;BMP280;50469;50.438;-119.202;2022-10-16T08:14:16;97923.47;;;5.15
64175;BMP280;50469;50.438;-119.202;2022-10-16T08:16:44;97937.00;;;4.94
64175;BMP280;50469;50.438;-119.202;2022-10-16T08:19:12;97938.81;;;4.24
64175;BMP280;50469;50.438;-119.202;2022-10-16T08:21:42;97939.53;;;3.72
64175;BMP280;50469;50.438;-119.202;2022-10-16T08:24:14;97943.91;;;4.05
64175;BMP280;50469;50.438;-119.202;2022-10-16T08:26:42;97936.75;;;4.18
64175;BMP280;50469;50.438;-119.202;2022-10-16T08:29:13;97939.94;;;4.23
64175;BMP280;50469;50.438;-119.202;2022-10-16T08:31:41;97940.16;;;4.31
64175;BMP280;50469;50.438;-119.202;2022-10-16T08:34:09;97942.91;;;4.34
64175;BMP280;50469;50.438;-119.202;2022-10-16T08:36:40;97945.81;;;4.29
64175;BMP280;50469;50.438;-119.202;2022-10-16T08:39:08;97953.75;;;4.17
64175;BMP280;50469;50.438;-119.202;2022-10-16T08:44:45;97944.31;;;4.44
64175;BMP280;50469;50.438;-119.202;2022-10-16T08:50:08;97951.81;;;4.54
64175;BMP280;50469;50.438;-119.202;2022-10-16T08:52:40;97946.63;;;4.45
64175;BMP280;50469;50.438;-119.202;2022-10-16T08:55:41;97942.88;;;4.47
64175;BMP280;50469;50.438;-119.202;2022-10-16T08:58:22;97943.34;;;4.36
64175;BMP280;50469;50.438;-119.202;2022-10-16T09:01:01;97951.31;;;4.36
64175;BMP280;50469;50.438;-119.202;2022-10-16T09:06:55;97955.50;;;4.25
64175;BMP280;50469;50.438;-119.202;2022-10-16T09:12:17;97943.91;;;4.05
64175;BMP280;50469;50.438;-119.202;2022-10-16T09:18:00;97955.16;;;3.77
64175;BMP280;50469;50.438;-119.202;2022-10-16T09:23:32;97966.84;;;3.52
64175;BMP280;50469;50.438;-119.202;2022-10-16T09:26:05;97965.06;;;3.56
64175;BMP280;50469;50.438;-119.202;2022-10-16T09:28:40;97963.00;;;3.61
64175;BMP280;50469;50.438;-119.202;2022-10-16T09:31:17;97957.38;;;3.63
64175;BMP280;50469;50.438;-119.202;2022-10-16T09:33:58;97954.84;;;3.67
64175;BMP280;50469;50.438;-119.202;2022-10-16T09:36:28;97962.22;;;3.61
64175;BMP280;50469;50.438;-119.202;2022-10-16T09:39:09;97962.66;;;3.51
64175;BMP280;50469;50.438;-119.202;2022-10-16T09:41:43;97969.72;;;3.59
64175;BMP280;50469;50.438;-119.202;2022-10-16T09:44:38;97969.38;;;3.60
64175;BMP280;50469;50.438;-119.202;2022-10-16T09:47:15;97972.59;;;3.66
64175;BMP280;50469;50.438;-119.202;2022-10-16T09:50:01;97961.44;;;3.60
64175;BMP280;50469;50.438;-119.202;2022-10-16T09:52:31;97967.97;;;3.63
64175;BMP280;50469;50.438;-119.202;2022-10-16T09:55:03;97970.28;;;3.65
64175;BMP280;50469;50.438;-119.202;2022-10-16T09:57:55;97971.31;;;3.72
64175;BMP280;50469;50.438;-119.202;2022-10-16T10:00:26;97968.75;;;3.76
64175;BMP280;50469;50.438;-119.202;2022-10-16T10:02:54;97966.28;;;3.58
64175;BMP280;50469;50.438;-119.202;2022-10-16T10:05:25;97971.81;;;3.66
64175;BMP280;50469;50.438;-119.202;2022-10-16T10:07:59;97964.78;;;3.70
64175;BMP280;50469;50.438;-119.202;2022-10-16T10:10:37;97968.53;;;3.81
64175;BMP280;50469;50.438;-119.202;2022-10-16T10:13:21;97966.31;;;3.83
64175;BMP280;50469;50.438;-119.202;2022-10-16T10:15:53;97964.13;;;3.85
64175;BMP280;50469;50.438;-119.202;2022-10-16T10:18:25;97970.75;;;3.79
64175;BMP280;50469;50.438;-119.202;2022-10-16T10:21:02;97973.03;;;3.68
64175;BMP280;50469;50.438;-119.202;2022-10-16T10:23:38;97967.00;;;2.80
64175;BMP280;50469;50.438;-119.202;2022-10-16T10:26:21;97968.25;;;2.62
64175;BMP280;50469;50.438;-119.202;2022-10-16T10:29:02;97970.28;;;2.77
64175;BMP280;50469;50.438;-119.202;2022-10-16T10:31:55;97966.84;;;2.97
64175;BMP280;50469;50.438;-119.202;2022-10-16T10:45:43;97963.91;;;3.20
64175;BMP280;50469;50.438;-119.202;2022-10-16T10:51:11;97954.84;;;3.21
64175;BMP280;50469;50.438;-119.202;2022-10-16T11:07:50;97957.53;;;2.58
64175;BMP280;50469;50.438;-119.202;2022-10-16T11:10:23;97964.72;;;2.70
64175;BMP280;50469;50.438;-119.202;2022-10-16T11:15:52;97949.16;;;2.26
64175;BMP280;50469;50.438;-119.202;2022-10-16T11:21:18;97962.22;;;2.31
64175;BMP280;50469;50.438;-119.202;2022-10-16T11:23:56;97952.78;;;2.43
64175;BMP280;50469;50.438;-119.202;2022-10-16T11:26:30;97955.88;;;2.45
64175;BMP280;50469;50.438;-119.202;2022-10-16T11:29:02;97962.34;;;2.56
64175;BMP280;50469;50.438;-119.202;2022-10-16T11:31:48;97949.53;;;2.67
64175;BMP280;50469;50.438;-119.202;2022-10-16T11:34:31;97964.34;;;2.80
64175;BMP280;50469;50.438;-119.202;2022-10-16T11:37:12;97955.84;;;2.74
64175;BMP280;50469;50.438;-119.202;2022-10-16T11:39:43;97962.50;;;2.80
64175;BMP280;50469;50.438;-119.202;2022-10-16T11:42:25;97957.34;;;2.33
64175;BMP280;50469;50.438;-119.202;2022-10-16T11:45:02;97960.41;;;2.14
64175;BMP280;50469;50.438;-119.202;2022-10-16T11:47:40;97965.38;;;2.16
64175;BMP280;50469;50.438;-119.202;2022-10-16T11:50:34;97963.16;;;2.27
64175;BMP280;50469;50.438;-119.202;2022-10-16T11:55:48;97953.59;;;2.34
64175;BMP280;50469;50.438;-119.202;2022-10-16T12:01:47;97970.81;;;2.19
64175;BMP280;50469;50.438;-119.202;2022-10-16T12:04:31;97963.72;;;2.03
64175;BMP280;50469;50.438;-119.202;2022-10-16T12:07:32;97954.81;;;1.86
64175;BMP280;50469;50.438;-119.202;2022-10-16T12:10:29;97960.16;;;1.98
64175;BMP280;50469;50.438;-119.202;2022-10-16T12:12:57;97950.66;;;2.06
64175;BMP280;50469;50.438;-119.202;2022-10-16T12:15:33;97955.94;;;2.06
64175;BMP280;50469;50.438;-119.202;2022-10-16T12:18:23;97950.00;;;2.18
64175;BMP280;50469;50.438;-119.202;2022-10-16T12:20:58;97957.25;;;2.30
64175;BMP280;50469;50.438;-119.202;2022-10-16T12:23:26;97956.41;;;2.08
64175;BMP280;50469;50.438;-119.202;2022-10-16T12:25:56;97952.03;;;2.12
64175;BMP280;50469;50.438;-119.202;2022-10-16T12:28:29;97967.34;;;2.28
64175;BMP280;50469;50.438;-119.202;2022-10-16T12:30:58;97970.47;;;2.21
64175;BMP280;50469;50.438;-119.202;2022-10-16T12:36:00;97959.81;;;2.38
64175;BMP280;50469;50.438;-119.202;2022-10-16T12:38:46;97967.59;;;2.05
64175;BMP280;50469;50.438;-119.202;2022-10-16T12:41:32;97967.13;;;2.12
64175;BMP280;50469;50.438;-119.202;2022-10-16T12:44:01;97956.41;;;2.08
64175;BMP280;50469;50.438;-119.202;2022-10-16T12:51:42;97958.25;;;2.37
64175;BMP280;50469;50.438;-119.202;2022-10-16T12:54:58;97964.91;;;2.44
64175;BMP280;50469;50.438;-119.202;2022-10-16T13:00:13;97966.66;;;2.39
64175;BMP280;50469;50.438;-119.202;2022-10-16T13:28:39;97960.88;;;1.69
64175;BMP280;50469;50.438;-119.202;2022-10-16T13:31:25;97964.31;;;1.61
64175;BMP280;50469;50.438;-119.202;2022-10-16T13:33:55;97964.38;;;1.26
64175;BMP280;50469;50.438;-119.202;2022-10-16T13:36:27;97963.31;;;1.10
64175;BMP280;50469;50.438;-119.202;2022-10-16T13:41:41;97966.09;;;1.22
64175;BMP280;50469;50.438;-119.202;2022-10-16T13:44:19;97956.88;;;1.37
64175;BMP280;50469;50.438;-119.202;2022-10-16T13:47:01;97960.63;;;1.36
64175;BMP280;50469;50.438;-119.202;2022-10-16T13:49:31;97961.69;;;1.61
64175;BMP280;50469;50.438;-119.202;2022-10-16T13:52:02;97962.13;;;1.72
64175;BMP280;50469;50.438;-119.202;2022-10-16T13:54:31;97947.84;;;1.73
64175;BMP280;50469;50.438;-119.202;2022-10-16T13:57:05;97962.47;;;1.53
64175;BMP280;50469;50.438;-119.202;2022-10-16T13:59:53;97960.59;;;1.45
64175;BMP280;50469;50.438;-119.202;2022-10-16T14:02:32;97952.44;;;1.29
64175;BMP280;50469;50.438;-119.202;2022-10-16T14:05:02;97964.22;;;1.05
64175;BMP280;50469;50.438;-119.202;2022-10-16T14:07:34;97966.41;;;1.12
64175;BMP280;50469;50.438;-119.202;2022-10-16T14:10:18;97957.88;;;1.32
64175;BMP280;50469;50.438;-119.202;2022-10-16T14:13:04;97957.22;;;1.35
64175;BMP280;50469;50.438;-119.202;2022-10-16T14:15:35;97954.31;;;1.28
64175;BMP280;50469;50.438;-119.202;2022-10-16T14:18:06;97959.69;;;1.40
64175;BMP280;50469;50.438;-119.202;2022-10-16T14:20:34;97959.44;;;1.33
64175;BMP280;50469;50.438;-119.202;2022-10-16T14:23:18;97956.13;;;1.45
64175;BMP280;50469;50.438;-119.202;2022-10-16T14:25:49;97963.09;;;1.41
64175;BMP280;50469;50.438;-119.202;2022-10-16T14:28:21;97969.81;;;1.30
64175;BMP280;50469;50.438;-119.202;2022-10-16T14:30:58;97980.13;;;0.56
64175;BMP280;50469;50.438;-119.202;2022-10-16T14:38:39;97982.53;;;0.93
64175;BMP280;50469;50.438;-119.202;2022-10-16T14:41:07;97985.78;;;1.07
64175;BMP280;50469;50.438;-119.202;2022-10-16T14:46:11;97986.41;;;1.13
64175;BMP280;50469;50.438;-119.202;2022-10-16T14:48:44;97999.13;;;1.11
64175;BMP280;50469;50.438;-119.202;2022-10-16T14:51:15;97999.09;;;1.37
64175;BMP280;50469;50.438;-119.202;2022-10-16T14:53:43;97989.38;;;1.20
64175;BMP280;50469;50.438;-119.202;2022-10-16T14:56:21;97986.13;;;1.14
64175;BMP280;50469;50.438;-119.202;2022-10-16T14:58:51;97987.38;;;1.26
64175;BMP280;50469;50.438;-119.202;2022-10-16T15:01:20;97989.81;;;1.31
64175;BMP280;50469;50.438;-119.202;2022-10-16T15:03:48;97991.34;;;1.40
64175;BMP280;50469;50.438;-119.202;2022-10-16T15:06:17;97984.72;;;1.34
64175;BMP280;50469;50.438;-119.202;2022-10-16T15:08:45;97986.69;;;1.46
64175;BMP280;50469;50.438;-119.202;2022-10-16T15:11:15;97990.25;;;1.59
64175;BMP280;50469;50.438;-119.202;2022-10-16T15:13:45;97987.91;;;1.75
64175;BMP280;50469;50.438;-119.202;2022-10-16T15:16:15;97987.56;;;1.85
64175;BMP280;50469;50.438;-119.202;2022-10-16T15:18:43;97985.38;;;1.87
64175;BMP280;50469;50.438;-119.202;2022-10-16T15:21:26;97978.88;;;1.85
64175;BMP280;50469;50.438;-119.202;2022-10-16T15:23:55;97985.38;;;1.87
64175;BMP280;50469;50.438;-119.202;2022-10-16T15:26:28;97977.59;;;1.91
64175;BMP280;50469;50.438;-119.202;2022-10-16T15:28:56;97986.16;;;2.26
64175;BMP280;50469;50.438;-119.202;2022-10-16T15:31:24;97982.97;;;2.33
64175;BMP280;50469;50.438;-119.202;2022-10-16T15:33:53;97981.50;;;2.53
64175;BMP280;50469;50.438;-119.202;2022-10-16T15:36:28;97985.38;;;2.55
64175;BMP280;50469;50.438;-119.202;2022-10-16T15:38:59;97983.25;;;2.70
64175;BMP280;50469;50.438;-119.202;2022-10-16T15:41:32;97982.88;;;2.80
64175;BMP280;50469;50.438;-119.202;2022-10-16T15:44:03;97982.88;;;3.22
64175;BMP280;50469;50.438;-119.202;2022-10-16T15:46:31;97991.72;;;3.38
64175;BMP280;50469;50.438;-119.202;2022-10-16T15:48:59;97986.38;;;3.59
64175;BMP280;50469;50.438;-119.202;2022-10-16T15:51:27;97991.81;;;3.88
64175;BMP280;50469;50.438;-119.202;2022-10-16T15:53:59;97991.31;;;3.94
64175;BMP280;50469;50.438;-119.202;2022-10-16T15:56:27;97994.59;;;4.03
64175;BMP280;50469;50.438;-119.202;2022-10-16T15:58:56;97991.97;;;4.16
64175;BMP280;50469;50.438;-119.202;2022-10-16T16:01:24;97996.50;;;4.40
64175;BMP280;50469;50.438;-119.202;2022-10-16T16:03:55;97993.16;;;4.43
64175;BMP280;50469;50.438;-119.202;2022-10-16T16:06:23;97999.22;;;4.56
64175;BMP280;50469;50.438;-119.202;2022-10-16T16:08:54;97996.69;;;4.59